Time;durP1;ratioP1;P1;durP2;ratioP2;P2;SDS_P1;SDS_P2;PMS_P1;PMS_P2;Temp;Humidity;BMP_temperature;BMP_pressure;BME280_temperature;BME280_humidity;BME280_pressure;Samples;Min_cycle;Max_cycle;Signal;HPM_P1;HPM_P2
2021/07/26 04:39:18;;;;;;;5.57;5.00;;;16.50;99.90;;;;;;5029557;28;20675;-96
2021/07/26 04:41:47;;;;;;;5.97;4.63;;;16.60;99.90;;;;;;5026375;28;20675;-96
2021/07/26 05:29:08;;;;;;;5.57;5.07;;;16.60;99.90;;;;;;5018556;28;20678;-96
2021/07/26 05:37:42;;;;;;;6.00;3.63;;;16.60;99.90;;;;;;5059622;23;20777;-96
2021/07/26 05:40:13;;;;;;;9.23;5.43;;;16.70;99.90;;;;;;5018267;28;20732;-95
2021/07/26 05:45:31;;;;;;;4.17;3.87;;;16.90;99.90;;;;;;5036673;28;20642;-96
2021/07/26 05:47:58;;;;;;;5.30;4.40;;;16.90;99.90;;;;;;5037230;28;20640;-94
2021/07/26 05:50:28;;;;;;;5.50;4.60;;;16.90;99.90;;;;;;5025595;28;20706;-95
2021/07/26 05:52:55;;;;;;;4.67;4.37;;;17.00;99.90;;;;;;5031874;28;20636;-96
2021/07/26 05:55:26;;;;;;;4.60;4.30;;;17.10;99.90;;;;;;5028585;28;20711;-96
2021/07/26 05:57:57;;;;;;;5.13;3.50;;;17.10;99.90;;;;;;5027817;28;20632;-96
2021/07/26 06:00:36;;;;;;;5.00;3.57;;;17.10;99.90;;;;;;5030952;28;20631;-96
2021/07/26 06:03:06;;;;;;;4.30;3.33;;;17.40;99.90;;;;;;5013247;28;20638;-95
2021/07/26 06:05:39;;;;;;;6.70;3.63;;;17.40;99.90;;;;;;5018199;28;20652;-96
2021/07/26 06:08:30;;;;;;;3.73;3.43;;;17.60;99.90;;;;;;5027449;28;20656;-95
2021/07/26 06:11:03;;;;;;;4.63;4.30;;;17.80;99.90;;;;;;5037100;28;20628;-96
2021/07/26 06:13:32;;;;;;;4.50;3.63;;;17.90;99.90;;;;;;5030108;28;20632;-95
2021/07/26 06:16:00;;;;;;;5.23;3.33;;;18.10;99.90;;;;;;5006880;28;20660;-90
2021/07/26 06:18:27;;;;;;;3.60;3.30;;;18.30;99.90;;;;;;5004930;28;20639;-90
2021/07/26 06:20:54;;;;;;;4.47;4.10;;;18.50;99.90;;;;;;4999873;28;20636;-90
2021/07/26 06:23:21;;;;;;;4.30;3.90;;;18.70;99.90;;;;;;5005349;28;21270;-89
2021/07/26 06:25:48;;;;;;;3.80;3.50;;;18.80;99.90;;;;;;5006203;28;20659;-90
2021/07/26 06:28:14;;;;;;;6.27;4.30;;;18.90;99.90;;;;;;5004251;28;20671;-89
2021/07/26 06:30:41;;;;;;;5.80;4.03;;;19.10;99.90;;;;;;5005367;28;20820;-89
2021/07/26 06:33:10;;;;;;;4.27;3.00;;;19.30;99.90;;;;;;5005333;28;20631;-91
2021/07/26 06:35:37;;;;;;;4.67;3.70;;;19.30;99.90;;;;;;5007095;28;20659;-91
2021/07/26 06:38:04;;;;;;;4.90;3.23;;;19.40;99.90;;;;;;5005809;28;20730;-91
2021/07/26 06:40:33;;;;;;;3.10;2.80;;;19.50;99.90;;;;;;5004484;28;20632;-91
2021/07/26 06:43:01;;;;;;;3.97;3.50;;;19.60;99.90;;;;;;5004968;28;20612;-92
2021/07/26 06:45:29;;;;;;;3.60;3.30;;;19.70;99.90;;;;;;5003325;28;20656;-90
2021/07/26 06:47:55;;;;;;;3.60;3.30;;;19.80;99.90;;;;;;5003966;28;20647;-89
2021/07/26 06:50:24;;;;;;;4.87;3.40;;;19.90;99.90;;;;;;4998966;28;21298;-89
2021/07/26 06:52:50;;;;;;;5.40;4.37;;;20.00;99.90;;;;;;4996702;28;20635;-88
2021/07/26 06:55:17;;;;;;;4.60;3.63;;;20.10;99.90;;;;;;5001796;28;20644;-88
2021/07/26 06:57:44;;;;;;;3.23;3.00;;;20.20;99.90;;;;;;5002559;28;20608;-90
2021/07/26 07:00:12;;;;;;;5.53;3.50;;;20.20;99.90;;;;;;5004523;28;20928;-89
2021/07/26 07:02:39;;;;;;;4.57;3.40;;;20.30;99.90;;;;;;5004337;28;20635;-88
2021/07/26 07:05:06;;;;;;;5.17;4.77;;;20.30;99.90;;;;;;5005578;28;20671;-90
2021/07/26 07:07:35;;;;;;;7.37;4.00;;;20.20;99.90;;;;;;5004684;28;20678;-92
2021/07/26 07:10:02;;;;;;;4.13;3.83;;;20.20;99.90;;;;;;4985829;28;20621;-89
2021/07/26 07:12:28;;;;;;;7.23;4.50;;;20.30;99.90;;;;;;5003186;28;21083;-88
2021/07/26 07:14:55;;;;;;;4.03;3.63;;;20.20;99.90;;;;;;5003727;28;21167;-89
2021/07/26 07:17:22;;;;;;;6.10;4.10;;;20.10;99.90;;;;;;5002689;28;20625;-88
2021/07/26 07:19:49;;;;;;;4.83;4.40;;;20.30;99.90;;;;;;4995200;28;20654;-90
2021/07/26 07:22:20;;;;;;;4.13;3.83;;;20.40;99.90;;;;;;5001651;28;20644;-89
2021/07/26 07:24:49;;;;;;;8.93;4.73;;;20.60;99.90;;;;;;5001475;28;21046;-90
2021/07/26 07:27:16;;;;;;;7.57;4.70;;;20.40;99.90;;;;;;5003279;28;20670;-90
2021/07/26 07:29:42;;;;;;;5.77;4.93;;;20.60;99.90;;;;;;5012146;28;20636;-90
2021/07/26 07:32:12;;;;;;;6.50;3.80;;;20.50;99.90;;;;;;5009501;28;20644;-91
2021/07/26 07:34:39;;;;;;;4.20;3.90;;;20.50;99.90;;;;;;5015502;28;20659;-92
2021/07/26 07:37:08;;;;;;;5.33;3.80;;;20.60;99.90;;;;;;5011074;28;21127;-92
2021/07/26 07:39:35;;;;;;;6.20;4.83;;;20.60;99.90;;;;;;5007953;28;20624;-92
2021/07/26 07:42:03;;;;;;;4.97;4.17;;;20.70;99.90;;;;;;4986563;28;20631;-92
2021/07/26 07:44:32;;;;;;;7.10;4.27;;;20.90;99.90;;;;;;5008924;28;20657;-93
2021/07/26 07:46:59;;;;;;;4.83;4.40;;;20.90;99.90;;;;;;5010164;28;20659;-90
2021/07/26 07:49:27;;;;;;;12.40;4.00;;;20.90;99.90;;;;;;5000839;28;20664;-90
2021/07/26 07:51:54;;;;;;;5.47;4.53;;;21.00;99.90;;;;;;5006593;28;21147;-89
2021/07/26 07:54:22;;;;;;;8.73;5.37;;;21.00;99.90;;;;;;5006463;28;20655;-93
2021/07/26 07:56:50;;;;;;;6.23;5.63;;;21.10;99.90;;;;;;5002279;28;21075;-91
2021/07/26 07:59:18;;;;;;;5.47;3.90;;;21.10;99.90;;;;;;5002432;28;20731;-92
2021/07/26 08:01:45;;;;;;;7.23;5.50;;;21.10;99.90;;;;;;5004898;28;20718;-91
2021/07/26 08:04:15;;;;;;;5.73;4.80;;;21.00;99.90;;;;;;5000539;28;20638;-91
2021/07/26 08:06:43;;;;;;;5.83;4.40;;;21.10;99.90;;;;;;5002361;28;20635;-91
2021/07/26 08:09:11;;;;;;;8.20;4.80;;;21.30;99.90;;;;;;5007364;28;20632;-91
2021/07/26 08:11:38;;;;;;;4.53;4.13;;;21.40;99.90;;;;;;5007447;28;20659;-92
2021/07/26 08:14:05;;;;;;;4.30;3.90;;;21.50;99.90;;;;;;5006384;28;21026;-92
2021/07/26 08:16:33;;;;;;;6.63;4.83;;;21.70;99.90;;;;;;4986150;28;20651;-92
2021/07/26 08:19:00;;;;;;;4.43;3.73;;;21.90;99.90;;;;;;5009357;28;20734;-92
2021/07/26 08:21:29;;;;;;;4.27;3.90;;;22.00;99.90;;;;;;5008786;28;20668;-92
2021/07/26 08:23:58;;;;;;;4.70;4.10;;;21.80;99.90;;;;;;5007980;28;21361;-93
2021/07/26 08:26:25;;;;;;;4.60;4.20;;;21.80;99.90;;;;;;5004803;28;20691;-92
2021/07/26 08:28:51;;;;;;;6.03;4.60;;;21.80;99.90;;;;;;5005937;28;20683;-92
2021/07/26 08:31:18;;;;;;;6.63;4.37;;;22.10;99.90;;;;;;5007909;28;20995;-92
2021/07/26 08:33:46;;;;;;;4.87;3.80;;;22.30;99.90;;;;;;5004294;28;20627;-92
2021/07/26 08:36:13;;;;;;;4.77;4.30;;;22.30;99.90;;;;;;5007762;28;20655;-92
2021/07/26 08:38:40;;;;;;;4.47;4.07;;;22.60;99.90;;;;;;5005706;28;21192;-92
2021/07/26 08:41:07;;;;;;;5.90;4.37;;;23.00;99.90;;;;;;5008713;28;21201;-92
2021/07/26 08:43:35;;;;;;;11.03;4.87;;;22.90;99.90;;;;;;5006797;28;21005;-92
2021/07/26 08:46:03;;;;;;;4.40;3.93;;;22.90;99.90;;;;;;5006663;28;20635;-92
2021/07/26 08:48:32;;;;;;;3.90;3.50;;;23.10;99.90;;;;;;5002654;28;20980;-92
2021/07/26 08:51:03;;;;;;;4.93;4.43;;;23.00;99.90;;;;;;5003198;28;20648;-92
2021/07/26 08:53:31;;;;;;;4.20;3.90;;;23.00;99.90;;;;;;5006140;28;21022;-92
2021/07/26 08:55:58;;;;;;;4.00;3.60;;;23.20;99.90;;;;;;4994475;28;20651;-92
2021/07/26 08:58:26;;;;;;;5.47;3.30;;;23.20;99.90;;;;;;5003518;28;21172;-92
2021/07/26 09:00:55;;;;;;;5.93;3.33;;;23.30;99.90;;;;;;5007126;28;20690;-92
2021/07/26 09:03:21;;;;;;;3.03;2.53;;;23.40;99.90;;;;;;5007057;28;20623;-92
2021/07/26 09:05:48;;;;;;;5.67;3.43;;;23.60;99.90;;;;;;5005309;28;20652;-92
2021/07/26 09:08:16;;;;;;;5.17;3.20;;;23.70;99.90;;;;;;5005478;28;20667;-92
2021/07/26 09:10:45;;;;;;;4.10;3.70;;;24.10;99.90;;;;;;5007138;28;20973;-92
2021/07/26 09:13:12;;;;;;;6.80;3.23;;;24.30;99.90;;;;;;5003402;28;20631;-92
2021/07/26 09:15:42;;;;;;;4.13;3.03;;;24.40;99.90;;;;;;5001157;28;20674;-92
2021/07/26 09:18:10;;;;;;;3.60;3.30;;;24.30;99.90;;;;;;5003923;28;21020;-92
2021/07/26 09:20:39;;;;;;;3.40;3.10;;;24.20;99.90;;;;;;5005218;28;20983;-92
2021/07/26 09:23:14;;;;;;;3.57;3.27;;;24.30;99.90;;;;;;5010266;28;20620;-92
2021/07/26 09:25:43;;;;;;;4.07;3.67;;;24.40;99.90;;;;;;5007616;28;20646;-92
2021/07/26 09:28:12;;;;;;;6.57;3.50;;;24.40;99.90;;;;;;5005532;28;20658;-92
2021/07/26 09:30:44;;;;;;;7.50;3.17;;;24.40;99.90;;;;;;5004763;28;21198;-92
2021/07/26 09:33:25;;;;;;;4.03;3.40;;;24.50;99.90;;;;;;5003566;28;20619;-92
2021/07/26 09:36:11;;;;;;;4.53;3.77;;;24.10;99.90;;;;;;5006486;28;20667;-92
2021/07/26 09:38:39;;;;;;;4.30;3.90;;;24.10;99.90;;;;;;5008035;28;20639;-92
2021/07/26 09:41:08;;;;;;;6.53;3.53;;;24.00;99.90;;;;;;5008694;28;20631;-92
2021/07/26 09:43:35;;;;;;;4.03;3.73;;;24.40;99.90;;;;;;5006008;28;20640;-92
2021/07/26 09:46:03;;;;;;;5.07;3.60;;;24.70;99.90;;;;;;5005305;28;20644;-92
2021/07/26 09:48:32;;;;;;;4.73;3.70;;;24.90;99.90;;;;;;4987972;28;20730;-92
2021/07/26 09:51:00;;;;;;;4.20;2.90;;;24.80;99.90;;;;;;5007961;28;20642;-91
2021/07/26 09:53:28;;;;;;;3.57;3.27;;;24.70;99.90;;;;;;5006125;28;20686;-92
2021/07/26 09:55:56;;;;;;;3.73;3.43;;;24.50;99.90;;;;;;5007399;28;20730;-91
2021/07/26 09:58:37;;;;;;;4.13;3.83;;;24.70;99.90;;;;;;5003291;28;20623;-91
2021/07/26 10:01:05;;;;;;;3.43;3.17;;;25.10;99.90;;;;;;5006084;28;20686;-91
2021/07/26 10:03:32;;;;;;;4.70;3.97;;;25.50;99.90;;;;;;5010999;28;20596;-90
2021/07/26 10:06:00;;;;;;;3.13;2.90;;;25.60;99.90;;;;;;5005126;28;20691;-90
2021/07/26 10:08:28;;;;;;;5.90;3.80;;;25.70;99.90;;;;;;5002864;28;20706;-90
2021/07/26 10:10:55;;;;;;;3.83;3.27;;;26.10;99.90;;;;;;5001469;28;20615;-90
2021/07/26 10:13:23;;;;;;;3.23;2.60;;;26.20;99.90;;;;;;5000403;28;20638;-90
2021/07/26 10:15:52;;;;;;;3.27;2.97;;;26.40;99.90;;;;;;4998602;28;20703;-90
2021/07/26 10:18:20;;;;;;;3.67;3.37;;;26.60;99.90;;;;;;5004169;28;20635;-90
2021/07/26 10:20:51;;;;;;;4.03;3.73;;;26.60;99.90;;;;;;5004843;28;21268;-90
2021/07/26 10:23:22;;;;;;;3.33;3.00;;;26.60;99.90;;;;;;5005013;28;20723;-90
2021/07/26 10:25:55;;;;;;;4.10;3.20;;;26.80;99.90;;;;;;5005381;28;20647;-90
2021/07/26 10:28:26;;;;;;;3.90;3.50;;;26.80;99.90;;;;;;5001553;28;20667;-90
2021/07/26 10:30:54;;;;;;;4.53;2.63;;;26.90;99.90;;;;;;4997577;28;20584;-89
2021/07/26 10:33:22;;;;;;;5.13;3.07;;;26.90;99.90;;;;;;5007331;28;20954;-90
2021/07/26 10:35:50;;;;;;;3.77;3.47;;;27.10;99.90;;;;;;5003541;28;20667;-89
2021/07/26 10:38:50;;;;;;;3.40;3.10;;;27.30;99.90;;;;;;5001309;28;21315;-89
2021/07/26 10:41:56;;;;;;;3.50;3.20;;;27.40;99.90;;;;;;5002108;28;20654;-90
2021/07/26 10:44:48;;;;;;;5.17;3.87;;;27.40;99.90;;;;;;4988942;28;20674;-89
2021/07/26 10:47:19;;;;;;;3.63;3.33;;;27.40;99.90;;;;;;5002164;28;21209;-90
2021/07/26 10:50:08;;;;;;;4.43;3.97;;;27.10;99.90;;;;;;5005453;28;20631;-90
2021/07/26 10:52:44;;;;;;;4.13;3.50;;;27.10;99.90;;;;;;5003810;28;20636;-89
2021/07/26 10:55:11;;;;;;;3.17;2.97;;;27.00;99.90;;;;;;5001589;28;20651;-89
2021/07/26 10:57:43;;;;;;;3.60;3.30;;;27.20;99.90;;;;;;5000313;28;20627;-89
2021/07/26 11:00:20;;;;;;;4.23;3.07;;;27.10;99.90;;;;;;5001233;28;20627;-89
2021/07/26 11:02:50;;;;;;;3.40;3.20;;;27.00;99.90;;;;;;5001334;28;20626;-90
2021/07/26 11:05:33;;;;;;;2.93;2.63;;;27.20;99.90;;;;;;4999707;28;20655;-89
2021/07/26 11:08:28;;;;;;;4.30;3.90;;;27.10;99.90;;;;;;5002565;28;20715;-90
2021/07/26 11:10:57;;;;;;;3.67;3.37;;;27.00;99.90;;;;;;5002969;28;20623;-89
2021/07/26 11:13:24;;;;;;;4.40;3.00;;;27.00;99.90;;;;;;5002750;28;20588;-88
2021/07/26 11:15:53;;;;;;;3.03;2.80;;;27.50;99.90;;;;;;5003500;28;20663;-88
2021/07/26 11:18:24;;;;;;;5.00;3.10;;;27.70;99.70;;;;;;5001167;28;20745;-89
2021/07/26 11:21:12;;;;;;;3.63;3.30;;;28.40;97.70;;;;;;5001063;28;20650;-89
2021/07/26 11:23:46;;;;;;;3.23;3.03;;;28.50;96.50;;;;;;5000062;28;20659;-89
2021/07/26 11:26:15;;;;;;;2.80;2.60;;;28.80;94.90;;;;;;4997619;28;20729;-89
2021/07/26 11:28:42;;;;;;;3.90;3.37;;;28.90;95.50;;;;;;4996570;28;21463;-89
2021/07/26 11:31:09;;;;;;;3.27;2.73;;;29.00;94.00;;;;;;5001584;28;20631;-89
2021/07/26 11:33:37;;;;;;;3.60;3.30;;;29.00;95.20;;;;;;5003051;28;20631;-89
2021/07/26 11:36:08;;;;;;;3.13;2.83;;;29.40;96.40;;;;;;5002089;28;20658;-89
2021/07/26 11:38:56;;;;;;;5.77;3.70;;;29.60;95.70;;;;;;4999439;28;20632;-90
2021/07/26 11:41:25;;;;;;;3.30;2.50;;;29.50;94.30;;;;;;5003797;28;20611;-90
2021/07/26 11:43:52;;;;;;;3.40;3.17;;;29.20;94.00;;;;;;4991445;28;20729;-89
2021/07/26 11:46:19;;;;;;;3.67;3.37;;;28.80;95.10;;;;;;5002195;28;20723;-90
2021/07/26 11:48:51;;;;;;;3.47;3.17;;;28.80;95.80;;;;;;5004125;28;21276;-90
2021/07/26 11:51:32;;;;;;;4.03;3.50;;;28.70;96.70;;;;;;5005926;28;21924;-89
2021/07/26 11:54:04;;;;;;;4.40;4.00;;;28.60;97.10;;;;;;5004986;28;20645;-90
2021/07/26 11:56:31;;;;;;;3.47;3.27;;;28.40;95.90;;;;;;5003606;28;20651;-90
2021/07/26 11:59:21;;;;;;;3.73;3.43;;;27.90;96.60;;;;;;5006289;28;21196;-90
2021/07/26 12:01:53;;;;;;;3.63;3.33;;;27.80;97.20;;;;;;5009924;28;20627;-90
2021/07/26 12:04:24;;;;;;;3.23;2.93;;;27.60;98.40;;;;;;5004206;28;20631;-90
2021/07/26 12:06:53;;;;;;;3.77;3.47;;;27.50;98.70;;;;;;5005109;28;20652;-90
2021/07/26 12:09:20;;;;;;;3.97;3.67;;;27.60;97.80;;;;;;5001515;28;20667;-90
2021/07/26 12:11:47;;;;;;;3.70;3.27;;;27.20;99.90;;;;;;5006159;28;20631;-90
2021/07/26 12:14:31;;;;;;;3.97;3.57;;;27.10;99.90;;;;;;5004528;28;20635;-90
2021/07/26 12:17:05;;;;;;;10.70;3.93;;;26.90;99.90;;;;;;4997075;28;20776;-89
2021/07/26 12:19:34;;;;;;;3.50;3.20;;;26.70;99.90;;;;;;4997844;28;20623;-90
2021/07/26 12:22:22;;;;;;;3.73;3.37;;;26.40;99.90;;;;;;5003176;28;20634;-90
2021/07/26 12:24:58;;;;;;;3.23;3.03;;;26.10;99.90;;;;;;5004553;28;20626;-91
2021/07/26 12:27:27;;;;;;;3.60;3.27;;;26.00;99.90;;;;;;4999067;28;20628;-90
2021/07/26 12:29:59;;;;;;;4.13;3.83;;;26.00;99.90;;;;;;4997161;28;21150;-90
2021/07/26 12:32:27;;;;;;;3.90;3.57;;;26.10;99.90;;;;;;5000130;28;20636;-89
2021/07/26 12:35:22;;;;;;;5.50;3.70;;;26.10;99.90;;;;;;5004859;28;20638;-90
2021/07/26 12:38:03;;;;;;;3.60;3.30;;;25.90;99.90;;;;;;4988012;28;20634;-89
2021/07/26 12:40:32;;;;;;;4.00;3.30;;;25.90;99.90;;;;;;4999592;28;20627;-90
2021/07/26 12:43:12;;;;;;;4.80;3.40;;;25.40;99.90;;;;;;5005411;28;20640;-90
2021/07/26 12:45:41;;;;;;;3.50;3.17;;;25.10;99.90;;;;;;5004125;28;20698;-90
2021/07/26 12:48:12;;;;;;;4.30;3.20;;;24.90;99.90;;;;;;5004234;28;20722;-90
2021/07/26 12:50:41;;;;;;;3.50;3.20;;;24.50;99.90;;;;;;5001267;28;20913;-90
2021/07/26 12:53:09;;;;;;;3.10;2.90;;;24.30;99.90;;;;;;5003927;28;20978;-89
2021/07/26 12:55:36;;;;;;;6.63;2.77;;;24.20;99.90;;;;;;5002661;28;20659;-90
2021/07/26 12:58:03;;;;;;;2.57;2.23;;;24.10;99.90;;;;;;5001329;28;20612;-91
2021/07/26 13:00:31;;;;;;;2.70;2.50;;;23.90;99.90;;;;;;5002010;28;20589;-90
2021/07/26 13:02:59;;;;;;;3.67;2.00;;;23.80;99.90;;;;;;5003911;28;20742;-89
2021/07/26 13:05:26;;;;;;;2.10;2.00;;;23.70;99.90;;;;;;4997604;28;21210;-89
2021/07/26 13:07:54;;;;;;;2.17;1.97;;;23.50;99.90;;;;;;5006330;28;20623;-90
2021/07/26 13:10:21;;;;;;;3.30;2.20;;;23.50;99.90;;;;;;5005085;28;20691;-90
2021/07/26 13:12:48;;;;;;;2.33;2.17;;;23.40;99.90;;;;;;5001862;28;20635;-90
2021/07/26 13:15:15;;;;;;;3.47;2.30;;;23.30;99.90;;;;;;5003017;28;21018;-90
2021/07/26 13:17:41;;;;;;;2.23;2.03;;;23.10;99.90;;;;;;5004675;28;20631;-90
2021/07/26 13:20:10;;;;;;;2.90;2.53;;;23.20;99.90;;;;;;4998539;28;20620;-89
2021/07/26 13:22:38;;;;;;;3.83;2.23;;;23.10;99.90;;;;;;5001176;28;20697;-90
2021/07/26 13:25:08;;;;;;;3.77;2.13;;;23.20;99.90;;;;;;5002030;28;20660;-89
2021/07/26 13:27:37;;;;;;;3.63;2.67;;;23.10;99.90;;;;;;4999675;28;20664;-90
2021/07/26 13:30:05;;;;;;;2.40;2.20;;;23.20;99.90;;;;;;4995023;28;20632;-90
2021/07/26 13:32:32;;;;;;;2.10;1.90;;;23.30;99.90;;;;;;5003924;28;20651;-91
2021/07/26 13:34:59;;;;;;;2.87;2.40;;;23.30;99.90;;;;;;4999765;28;21609;-89
2021/07/26 13:37:26;;;;;;;3.47;2.10;;;23.50;99.90;;;;;;5000811;28;21137;-89
2021/07/26 13:39:53;;;;;;;2.33;2.13;;;23.30;99.90;;;;;;5002113;28;20697;-89
2021/07/26 13:42:21;;;;;;;4.87;2.60;;;23.20;99.90;;;;;;5002240;28;20631;-92
2021/07/26 13:44:48;;;;;;;2.60;2.50;;;23.20;99.90;;;;;;5003071;28;21336;-91
2021/07/26 13:47:15;;;;;;;2.50;2.30;;;23.10;99.90;;;;;;5004053;28;20664;-89
2021/07/26 13:49:42;;;;;;;3.33;1.93;;;23.10;99.90;;;;;;5004877;28;21092;-91
2021/07/26 13:52:08;;;;;;;2.07;1.97;;;23.00;99.90;;;;;;5003864;28;21009;-89
2021/07/26 13:54:35;;;;;;;2.60;2.40;;;23.00;99.90;;;;;;5005176;28;20634;-90
2021/07/26 13:57:02;;;;;;;2.20;2.10;;;22.80;99.90;;;;;;5010050;28;20625;-89
2021/07/26 13:59:31;;;;;;;2.70;2.50;;;22.90;99.90;;;;;;5013902;28;20619;-89
2021/07/26 14:01:58;;;;;;;2.53;2.33;;;23.00;99.90;;;;;;5019839;28;20643;-88
2021/07/26 14:04:26;;;;;;;2.20;2.00;;;22.80;99.90;;;;;;5017488;28;21281;-89
2021/07/26 14:06:53;;;;;;;2.00;1.80;;;22.90;99.90;;;;;;5015204;28;20647;-89
2021/07/26 14:09:19;;;;;;;3.20;1.80;;;22.90;99.90;;;;;;5021263;28;20631;-89
2021/07/26 14:11:46;;;;;;;2.20;2.00;;;22.90;99.90;;;;;;5018875;28;20627;-90
2021/07/26 14:14:13;;;;;;;3.43;2.17;;;23.00;99.90;;;;;;5014876;28;20775;-90
2021/07/26 14:16:42;;;;;;;2.90;2.70;;;23.00;99.90;;;;;;5009617;28;20651;-89
2021/07/26 14:19:09;;;;;;;2.50;2.30;;;23.00;99.90;;;;;;5009324;28;20639;-90
2021/07/26 14:21:35;;;;;;;3.87;2.80;;;23.00;99.90;;;;;;5003769;28;20635;-90
2021/07/26 14:24:03;;;;;;;2.23;2.03;;;23.00;99.90;;;;;;5006307;28;20623;-90
2021/07/26 14:26:29;;;;;;;4.83;2.70;;;22.90;99.90;;;;;;4996996;28;21469;-89
2021/07/26 14:28:57;;;;;;;3.30;2.97;;;22.80;99.90;;;;;;5000163;28;20733;-90
2021/07/26 14:31:24;;;;;;;6.87;2.80;;;22.80;99.90;;;;;;5001694;28;21018;-90
2021/07/26 14:33:52;;;;;;;2.77;2.57;;;22.80;99.90;;;;;;5021129;28;20623;-90
2021/07/26 14:36:19;;;;;;;3.93;3.17;;;22.50;99.90;;;;;;5016410;28;20664;-89
2021/07/26 14:38:46;;;;;;;4.43;2.60;;;22.40;99.90;;;;;;5008411;28;20671;-89
2021/07/26 14:41:12;;;;;;;3.33;3.00;;;22.20;99.90;;;;;;4997048;28;20612;-89
2021/07/26 14:43:40;;;;;;;3.90;3.50;;;22.00;99.90;;;;;;4999604;28;20623;-90
2021/07/26 14:46:07;;;;;;;3.87;3.50;;;21.90;99.90;;;;;;5001424;28;20766;-89
2021/07/26 14:48:34;;;;;;;3.73;3.43;;;21.60;99.90;;;;;;4998254;28;20635;-89
2021/07/26 14:51:04;;;;;;;4.23;3.13;;;21.50;99.90;;;;;;4999117;28;20707;-90
2021/07/26 14:53:31;;;;;;;3.30;3.10;;;21.20;99.90;;;;;;4999643;28;20588;-90
2021/07/26 14:55:59;;;;;;;3.80;3.00;;;21.00;99.90;;;;;;5001517;28;20652;-90
2021/07/26 14:58:26;;;;;;;3.73;3.43;;;21.00;99.90;;;;;;5000603;28;20629;-89
2021/07/26 15:00:53;;;;;;;9.60;5.20;;;20.90;99.90;;;;;;5007369;28;20615;-90
2021/07/26 15:03:21;;;;;;;6.97;4.80;;;20.30;99.90;;;;;;5010225;28;20631;-91
2021/07/26 15:05:48;;;;;;;7.30;5.50;;;19.80;99.90;;;;;;5004523;28;20667;-91
2021/07/26 15:08:17;;;;;;;6.10;5.20;;;19.40;99.90;;;;;;5004836;28;20623;-91
2021/07/26 15:10:44;;;;;;;9.43;6.10;;;19.10;99.90;;;;;;4999464;28;21263;-91
2021/07/26 15:13:16;;;;;;;6.50;5.30;;;19.00;99.90;;;;;;4999371;28;20928;-92
2021/07/26 15:15:44;;;;;;;6.43;4.63;;;18.80;99.90;;;;;;5006691;28;20659;-92
2021/07/26 15:18:10;;;;;;;4.53;4.17;;;18.80;99.90;;;;;;5000664;28;20635;-92
2021/07/26 15:20:37;;;;;;;6.80;5.00;;;18.60;99.90;;;;;;4998899;28;20839;-91
2021/07/26 15:23:06;;;;;;;5.33;4.40;;;18.60;99.90;;;;;;4999324;28;20636;-92
2021/07/26 15:25:35;;;;;;;10.80;5.20;;;18.60;99.90;;;;;;4998536;28;20680;-92
2021/07/26 15:28:02;;;;;;;6.07;5.40;;;18.60;99.90;;;;;;5006547;28;21166;-92
2021/07/26 15:30:29;;;;;;;5.90;4.57;;;18.80;99.90;;;;;;5001774;28;21258;-92
2021/07/26 15:32:56;;;;;;;7.27;5.57;;;18.80;99.90;;;;;;5003994;28;20636;-92
2021/07/26 15:35:24;;;;;;;6.63;4.97;;;18.90;99.90;;;;;;5003598;28;20652;-92
2021/07/26 15:37:51;;;;;;;6.10;5.20;;;19.00;99.90;;;;;;4977820;28;20642;-92
2021/07/26 15:40:18;;;;;;;6.80;4.37;;;19.10;99.90;;;;;;4981224;28;21050;-92
2021/07/26 15:42:46;;;;;;;5.70;4.73;;;19.20;99.90;;;;;;4986459;28;20644;-92
2021/07/26 15:45:15;;;;;;;5.67;5.10;;;19.20;99.90;;;;;;5004586;28;20670;-92
2021/07/26 15:47:41;;;;;;;5.40;4.90;;;19.30;99.90;;;;;;4997008;28;20643;-92
2021/07/26 15:50:09;;;;;;;6.20;5.60;;;19.50;99.90;;;;;;5002644;28;20690;-92
2021/07/26 15:52:36;;;;;;;10.10;4.50;;;19.60;99.90;;;;;;4999815;28;20628;-91
2021/07/26 15:55:03;;;;;;;4.93;3.80;;;19.70;99.90;;;;;;4998078;28;20688;-92
2021/07/26 15:57:30;;;;;;;7.60;4.40;;;19.60;99.90;;;;;;4998286;28;20629;-92
2021/07/26 15:59:58;;;;;;;4.60;4.10;;;19.70;99.90;;;;;;5002414;28;20626;-88
2021/07/26 16:02:25;;;;;;;5.50;4.97;;;19.80;99.90;;;;;;5006422;28;21098;-89
2021/07/26 16:04:52;;;;;;;8.23;4.73;;;20.30;99.90;;;;;;5000887;28;20892;-89
2021/07/26 16:07:18;;;;;;;7.47;5.57;;;20.90;99.90;;;;;;5003300;28;20615;-89
2021/07/26 16:09:45;;;;;;;4.60;4.10;;;21.60;99.90;;;;;;4997754;28;20667;-89
2021/07/26 16:12:12;;;;;;;4.03;3.37;;;21.90;99.90;;;;;;4997255;28;21183;-89
2021/07/26 16:14:39;;;;;;;6.60;3.43;;;22.90;99.90;;;;;;4995943;28;21251;-89
2021/07/26 16:17:07;;;;;;;5.23;3.70;;;23.50;99.90;;;;;;4980836;28;21117;-89
2021/07/26 16:19:34;;;;;;;3.90;3.53;;;23.90;99.90;;;;;;4994691;28;21095;-89
2021/07/26 16:22:01;;;;;;;5.30;4.43;;;24.30;99.90;;;;;;4998703;28;21161;-89
2021/07/26 16:24:28;;;;;;;6.20;3.70;;;23.80;99.90;;;;;;4998900;28;21062;-90
2021/07/26 16:26:54;;;;;;;4.20;3.30;;;23.00;99.90;;;;;;4995343;28;20754;-90
2021/07/26 16:29:21;;;;;;;4.10;3.70;;;22.10;99.90;;;;;;5000357;28;20623;-90
2021/07/26 16:31:48;;;;;;;4.80;4.30;;;21.40;99.90;;;;;;5001715;28;21162;-89
2021/07/26 16:34:16;;;;;;;5.50;4.43;;;21.40;99.90;;;;;;5003144;28;20631;-89
2021/07/26 16:36:43;;;;;;;5.43;4.83;;;22.20;99.90;;;;;;4983951;28;20701;-89
2021/07/26 16:39:10;;;;;;;3.70;3.33;;;22.00;99.90;;;;;;5001305;28;20636;-90
2021/07/26 16:41:36;;;;;;;5.00;4.30;;;22.30;99.90;;;;;;5000160;28;20623;-90
2021/07/26 16:44:04;;;;;;;8.63;3.90;;;22.10;99.90;;;;;;4985016;28;20643;-90
2021/07/26 16:46:31;;;;;;;5.00;4.50;;;22.10;99.90;;;;;;5003695;28;21237;-90
2021/07/26 16:48:58;;;;;;;4.53;3.73;;;22.00;99.90;;;;;;4967118;28;20659;-90
2021/07/26 16:51:26;;;;;;;4.47;3.60;;;21.80;99.90;;;;;;5001141;28;20674;-91
2021/07/26 16:53:53;;;;;;;5.03;4.53;;;21.40;99.90;;;;;;5002998;28;20976;-89
2021/07/26 16:56:19;;;;;;;5.67;4.20;;;21.10;99.90;;;;;;5001115;28;20673;-90
2021/07/26 16:58:46;;;;;;;5.83;4.43;;;21.00;99.90;;;;;;5002099;28;20584;-90
2021/07/26 17:01:13;;;;;;;4.63;4.23;;;20.80;99.90;;;;;;5004002;28;20635;-90
2021/07/26 17:03:40;;;;;;;4.70;4.30;;;20.60;99.90;;;;;;5002839;28;20654;-90
2021/07/26 17:06:07;;;;;;;3.87;3.57;;;20.50;99.90;;;;;;4999108;28;21229;-90
2021/07/26 17:08:35;;;;;;;4.47;3.83;;;20.20;99.90;;;;;;5001214;28;21407;-90
2021/07/26 17:11:02;;;;;;;6.23;3.53;;;19.90;99.90;;;;;;5001905;28;20674;-91
2021/07/26 17:13:29;;;;;;;5.43;3.77;;;19.90;99.90;;;;;;4999429;28;20623;-90
2021/07/26 17:15:55;;;;;;;5.30;4.10;;;19.80;99.90;;;;;;5002594;28;20655;-90
2021/07/26 17:18:22;;;;;;;5.60;4.50;;;19.80;99.90;;;;;;5001256;28;20635;-90
2021/07/26 17:20:49;;;;;;;4.87;4.50;;;19.70;99.90;;;;;;4998665;28;20933;-90
2021/07/26 17:23:17;;;;;;;9.07;4.90;;;19.50;99.90;;;;;;5003354;28;20738;-90
2021/07/26 17:25:45;;;;;;;5.20;4.70;;;19.40;99.90;;;;;;5003706;28;21157;-90
2021/07/26 17:28:12;;;;;;;5.00;4.60;;;19.30;99.90;;;;;;4999562;28;20644;-90
2021/07/26 17:30:41;;;;;;;5.10;4.60;;;19.30;99.90;;;;;;4999722;28;20682;-90
2021/07/26 17:33:08;;;;;;;4.13;3.83;;;19.30;99.90;;;;;;5001232;28;20678;-90
2021/07/26 17:35:34;;;;;;;5.40;4.40;;;19.30;99.90;;;;;;5001394;28;20664;-90
2021/07/26 17:38:01;;;;;;;3.90;3.60;;;19.10;99.90;;;;;;5005943;28;20647;-90
2021/07/26 17:40:29;;;;;;;6.53;3.50;;;19.00;99.90;;;;;;4998571;28;20624;-91
2021/07/26 17:42:57;;;;;;;3.90;3.40;;;19.00;99.90;;;;;;4998551;28;21353;-90
2021/07/26 17:45:24;;;;;;;3.00;2.80;;;19.00;99.90;;;;;;5003891;28;20656;-90
2021/07/26 17:47:51;;;;;;;7.17;3.23;;;19.00;99.90;;;;;;5000214;28;20614;-87
2021/07/26 17:50:18;;;;;;;5.90;2.80;;;19.10;99.90;;;;;;4996016;28;20651;-88
2021/07/26 17:52:44;;;;;;;3.90;2.93;;;19.20;99.90;;;;;;4999318;28;20635;-88
2021/07/26 17:55:12;;;;;;;13.17;3.70;;;19.30;99.90;;;;;;4997911;28;20671;-87
2021/07/26 17:57:39;;;;;;;5.13;3.03;;;19.30;99.90;;;;;;4999515;28;20632;-87
2021/07/26 18:00:08;;;;;;;2.57;2.27;;;19.20;99.90;;;;;;4999869;28;20648;-87
2021/07/26 18:02:35;;;;;;;4.40;2.90;;;19.10;99.90;;;;;;5000734;28;20999;-87
2021/07/26 18:05:06;;;;;;;6.60;2.97;;;19.10;99.90;;;;;;5001057;28;21199;-87
2021/07/26 18:07:38;;;;;;;3.00;2.80;;;19.10;99.90;;;;;;4995227;28;20642;-87
2021/07/26 18:10:06;;;;;;;3.10;2.90;;;18.90;99.90;;;;;;4998643;28;20675;-87
2021/07/26 18:12:36;;;;;;;4.77;2.90;;;18.90;99.90;;;;;;4993157;28;20621;-88
2021/07/26 18:15:03;;;;;;;5.13;2.40;;;18.90;99.90;;;;;;4999836;28;21250;-87
2021/07/26 18:17:31;;;;;;;3.80;3.50;;;19.00;99.90;;;;;;4996966;28;20641;-87
2021/07/26 18:19:58;;;;;;;5.60;3.70;;;19.20;99.90;;;;;;4997939;28;20636;-87
2021/07/26 18:22:25;;;;;;;3.87;3.53;;;19.10;99.90;;;;;;5000258;28;20731;-87
2021/07/26 18:24:52;;;;;;;3.50;3.00;;;19.10;99.90;;;;;;4994001;28;20624;-87
2021/07/26 18:27:19;;;;;;;4.53;2.37;;;19.00;99.90;;;;;;4989974;28;20672;-87